Time;durP1;ratioP1;P1;durP2;ratioP2;P2;SDS_P1;SDS_P2;PMS_P1;PMS_P2;Temp;Humidity;BMP_temperature;BMP_pressure;BME280_temperature;BME280_humidity;BME280_pressure;Samples;Min_cycle;Max_cycle;Signal;HPM_P1;HPM_P2
2022/04/15 00:01:20;;;;;;;6.95;3.67;;;16.60;56.90;;;;;;4981358;28;20027;-60
2022/04/15 00:03:46;;;;;;;6.03;3.50;;;16.60;57.00;;;;;;4990735;28;20096;-61
2022/04/15 00:06:12;;;;;;;4.20;3.00;;;16.60;57.30;;;;;;4967249;28;20041;-59
2022/04/15 00:08:38;;;;;;;6.30;3.13;;;16.50;57.10;;;;;;4982507;28;20026;-61
2022/04/15 00:11:04;;;;;;;5.70;3.35;;;16.50;57.30;;;;;;4984285;28;20083;-61
2022/04/15 00:13:31;;;;;;;6.25;3.70;;;16.40;57.30;;;;;;4985555;28;20069;-61
2022/04/15 00:15:57;;;;;;;4.85;2.97;;;16.30;57.50;;;;;;4982396;28;20023;-60
2022/04/15 00:18:24;;;;;;;6.68;3.35;;;16.30;57.60;;;;;;4986377;28;20039;-60
2022/04/15 00:20:53;;;;;;;10.68;3.10;;;16.30;57.60;;;;;;4989527;28;20488;-59
2022/04/15 00:23:21;;;;;;;7.80;3.08;;;16.20;57.70;;;;;;4984070;28;20031;-60
2022/04/15 00:25:46;;;;;;;5.03;2.90;;;16.20;57.80;;;;;;4984105;28;20385;-60
2022/04/15 00:28:12;;;;;;;9.75;3.40;;;16.20;57.90;;;;;;4978386;28;20027;-60
2022/04/15 00:30:38;;;;;;;5.63;3.28;;;16.20;57.80;;;;;;4981080;28;20396;-61
2022/04/15 00:33:03;;;;;;;5.30;3.03;;;16.20;57.90;;;;;;4982968;28;20121;-61
2022/04/15 00:35:29;;;;;;;5.10;3.13;;;16.10;57.80;;;;;;4985686;28;20022;-61
2022/04/15 00:37:54;;;;;;;5.40;3.28;;;16.10;57.90;;;;;;4988710;28;20018;-60
2022/04/15 00:40:20;;;;;;;6.72;3.40;;;16.10;58.00;;;;;;4988240;28;20030;-61
2022/04/15 00:42:46;;;;;;;6.78;3.65;;;16.10;58.20;;;;;;4981798;28;20031;-61
2022/04/15 00:45:12;;;;;;;8.88;3.42;;;16.00;58.20;;;;;;4981833;28;20088;-60
2022/04/15 00:47:54;;;;;;;6.05;3.33;;;16.00;58.80;;;;;;4985253;28;20116;-59
2022/04/15 00:50:23;;;;;;;8.07;4.00;;;16.00;58.80;;;;;;4988205;28;20023;-61
2022/04/15 00:52:51;;;;;;;7.07;3.55;;;16.00;58.40;;;;;;4980488;28;20023;-60
2022/04/15 00:55:19;;;;;;;5.53;3.38;;;15.90;58.50;;;;;;4986183;28;20030;-61
2022/04/15 00:57:50;;;;;;;5.20;3.30;;;15.90;58.60;;;;;;4985427;28;20085;-59
2022/04/15 01:00:17;;;;;;;4.57;3.60;;;15.80;58.60;;;;;;4979840;28;20623;-59
2022/04/15 01:02:44;;;;;;;6.53;3.47;;;15.80;58.60;;;;;;4977494;28;20171;-60
2022/04/15 01:05:10;;;;;;;7.25;4.03;;;15.80;58.60;;;;;;4975005;28;20061;-60
2022/04/15 01:07:41;;;;;;;6.38;3.67;;;15.70;58.70;;;;;;4980793;28;20061;-59
2022/04/15 01:10:10;;;;;;;7.50;3.85;;;15.70;59.20;;;;;;4978960;28;20053;-60
2022/04/15 01:12:38;;;;;;;6.25;3.90;;;15.70;59.10;;;;;;4982718;28;20501;-61
2022/04/15 01:15:08;;;;;;;6.03;3.78;;;15.60;59.00;;;;;;4984571;28;20027;-60
2022/04/15 01:17:35;;;;;;;8.90;4.00;;;15.60;59.30;;;;;;4986068;28;20037;-59
2022/04/15 01:20:03;;;;;;;8.15;3.85;;;15.60;59.10;;;;;;4987743;28;20031;-59
2022/04/15 01:22:32;;;;;;;7.15;3.53;;;15.60;59.20;;;;;;4978087;28;20095;-59
2022/04/15 01:24:58;;;;;;;10.45;3.75;;;15.50;59.30;;;;;;4983824;28;20094;-61
2022/04/15 01:27:28;;;;;;;5.28;3.60;;;15.50;59.10;;;;;;4878115;28;20058;-61
2022/04/15 01:29:53;;;;;;;7.38;3.95;;;15.50;59.40;;;;;;4982633;28;20020;-59
2022/04/15 01:32:19;;;;;;;8.40;3.63;;;15.50;59.20;;;;;;4984950;28;20081;-60
2022/04/15 01:34:45;;;;;;;5.30;3.38;;;15.50;59.80;;;;;;4980552;28;20073;-61
2022/04/15 01:37:14;;;;;;;6.70;3.28;;;15.50;59.20;;;;;;4974964;28;20029;-60
2022/04/15 01:39:40;;;;;;;10.07;3.88;;;15.50;59.20;;;;;;4981907;28;20086;-60
2022/04/15 01:42:10;;;;;;;5.38;3.45;;;15.50;59.20;;;;;;4982288;28;20041;-60
2022/04/15 01:44:36;;;;;;;5.75;3.60;;;15.40;59.20;;;;;;4983003;28;20693;-61
2022/04/15 01:47:01;;;;;;;10.88;4.03;;;15.40;59.20;;;;;;4981634;28;20030;-60
2022/04/15 01:49:27;;;;;;;5.43;3.67;;;15.40;59.30;;;;;;4977373;28;20031;-61
2022/04/15 01:51:53;;;;;;;6.53;3.88;;;15.40;59.40;;;;;;4985357;28;20035;-61
2022/04/15 01:54:18;;;;;;;5.65;3.30;;;15.30;59.30;;;;;;4962185;28;20038;-59
2022/04/15 01:56:44;;;;;;;5.15;3.45;;;15.30;59.30;;;;;;4987878;28;20029;-59
2022/04/15 01:59:10;;;;;;;5.65;3.83;;;15.30;59.40;;;;;;4986051;28;20047;-59
2022/04/15 02:01:36;;;;;;;6.40;3.40;;;15.20;59.50;;;;;;4988253;28;20026;-60
2022/04/15 02:04:02;;;;;;;6.60;3.55;;;15.20;59.50;;;;;;4983907;28;20082;-60
2022/04/15 02:06:28;;;;;;;6.97;3.70;;;15.10;59.60;;;;;;4985402;28;20030;-59
2022/04/15 02:08:53;;;;;;;8.52;4.00;;;15.10;59.70;;;;;;4978850;28;20054;-61
2022/04/15 02:11:19;;;;;;;6.13;3.83;;;15.10;59.80;;;;;;4982314;28;20061;-60
2022/04/15 02:13:45;;;;;;;6.75;3.70;;;15.00;59.80;;;;;;4977746;28;20034;-61
2022/04/15 02:16:11;;;;;;;7.32;4.05;;;15.00;59.90;;;;;;4979279;28;20030;-60
2022/04/15 02:18:36;;;;;;;7.60;3.72;;;15.00;59.90;;;;;;4981993;28;20141;-61
2022/04/15 02:21:02;;;;;;;6.00;3.45;;;15.00;60.00;;;;;;4984705;28;20057;-60
2022/04/15 02:23:28;;;;;;;5.28;3.85;;;14.90;60.10;;;;;;4983845;28;20432;-59
2022/04/15 02:25:53;;;;;;;8.18;4.10;;;14.90;60.40;;;;;;4981605;28;20058;-60
2022/04/15 02:28:19;;;;;;;7.70;4.20;;;14.90;60.50;;;;;;4981509;28;20129;-60
2022/04/15 02:30:47;;;;;;;6.95;4.13;;;14.90;60.60;;;;;;4987651;28;20038;-61
2022/04/15 02:33:14;;;;;;;5.75;3.63;;;14.80;60.60;;;;;;4987436;28;20069;-60
2022/04/15 02:35:40;;;;;;;7.05;3.47;;;14.80;60.70;;;;;;4983303;28;20030;-60
2022/04/15 02:38:06;;;;;;;6.60;4.03;;;14.80;60.70;;;;;;4983314;28;20037;-60
2022/04/15 02:40:31;;;;;;;6.80;3.88;;;14.80;60.70;;;;;;4982882;28;20062;-60
2022/04/15 02:42:57;;;;;;;5.30;3.50;;;14.80;60.70;;;;;;4984999;28;20090;-61
2022/04/15 02:45:23;;;;;;;6.25;3.75;;;14.80;60.70;;;;;;4978980;28;20035;-61
2022/04/15 02:47:49;;;;;;;6.05;3.72;;;14.80;60.80;;;;;;4982592;28;20023;-60
2022/04/15 02:50:15;;;;;;;5.88;3.60;;;14.80;60.90;;;;;;4977384;28;20041;-61
2022/04/15 02:52:41;;;;;;;8.20;3.95;;;14.80;60.90;;;;;;4978190;28;20252;-60
2022/04/15 02:55:07;;;;;;;6.57;3.97;;;14.80;61.00;;;;;;4988928;28;20026;-61
2022/04/15 02:57:33;;;;;;;6.10;3.97;;;14.80;61.10;;;;;;4981092;28;20453;-61
2022/04/15 02:59:59;;;;;;;10.05;3.58;;;14.80;61.00;;;;;;4984512;28;20042;-59
2022/04/15 03:02:25;;;;;;;7.53;3.53;;;14.70;60.90;;;;;;4985997;28;20113;-59
2022/04/15 03:04:51;;;;;;;6.40;3.55;;;14.80;60.90;;;;;;4983634;28;20088;-60
2022/04/15 03:07:17;;;;;;;4.88;3.35;;;14.70;60.90;;;;;;4983770;28;20018;-59
2022/04/15 03:09:43;;;;;;;6.55;3.50;;;14.70;60.90;;;;;;4983004;28;20080;-60
2022/04/15 03:12:10;;;;;;;4.47;3.50;;;14.70;60.90;;;;;;4980550;28;20066;-59
2022/04/15 03:14:36;;;;;;;4.88;3.67;;;14.70;60.80;;;;;;4986518;28;20042;-61
2022/04/15 03:17:02;;;;;;;10.32;3.80;;;14.70;60.80;;;;;;4987181;28;20073;-58
2022/04/15 03:19:27;;;;;;;5.75;3.65;;;14.60;60.70;;;;;;4985505;28;20045;-59
2022/04/15 03:21:53;;;;;;;8.13;3.85;;;14.60;60.80;;;;;;4986079;28;20382;-59
2022/04/15 03:24:18;;;;;;;6.28;3.60;;;14.50;60.70;;;;;;4988669;28;20030;-59
2022/04/15 03:26:44;;;;;;;4.68;3.70;;;14.50;60.70;;;;;;4984658;28;20046;-59
2022/04/15 03:29:10;;;;;;;5.97;4.18;;;14.40;60.70;;;;;;4981942;28;20054;-59
2022/04/15 03:31:35;;;;;;;4.05;3.30;;;14.40;60.70;;;;;;4984860;28;20051;-60
2022/04/15 03:34:01;;;;;;;8.95;3.60;;;14.40;60.70;;;;;;4990957;28;20027;-59
2022/04/15 03:36:26;;;;;;;6.03;3.70;;;14.30;60.60;;;;;;4985371;28;20026;-59
2022/04/15 03:38:52;;;;;;;5.35;3.60;;;14.20;60.60;;;;;;4981414;28;20035;-61
2022/04/15 03:41:18;;;;;;;6.18;3.88;;;14.20;60.60;;;;;;4986096;28;20045;-59
2022/04/15 03:43:43;;;;;;;5.93;3.45;;;14.10;60.50;;;;;;4983418;28;20035;-59
2022/04/15 03:46:09;;;;;;;4.68;3.67;;;14.10;60.60;;;;;;4981912;28;20037;-59
2022/04/15 03:48:35;;;;;;;3.90;3.33;;;14.10;60.80;;;;;;4983093;28;20121;-59
2022/04/15 03:51:00;;;;;;;8.90;4.05;;;14.00;60.80;;;;;;4991210;28;20023;-59
2022/04/15 03:53:26;;;;;;;5.05;3.75;;;13.90;60.80;;;;;;4987957;28;20093;-59
2022/04/15 03:55:52;;;;;;;6.00;3.58;;;13.90;60.90;;;;;;4983325;28;20444;-59
2022/04/15 03:58:18;;;;;;;6.50;3.58;;;13.80;61.00;;;;;;4967818;28;20035;-59
2022/04/15 04:00:44;;;;;;;5.38;3.45;;;13.80;61.20;;;;;;4989848;28;20093;-59
2022/04/15 04:03:10;;;;;;;6.10;3.63;;;13.70;61.30;;;;;;4982738;28;20045;-60
2022/04/15 04:05:36;;;;;;;9.15;4.10;;;13.70;61.50;;;;;;4989708;28;20038;-60
2022/04/15 04:08:02;;;;;;;5.78;3.85;;;13.60;61.60;;;;;;4989708;28;20030;-59
2022/04/15 04:10:27;;;;;;;5.80;4.03;;;13.60;61.70;;;;;;4980294;28;20034;-60
2022/04/15 04:12:53;;;;;;;4.85;3.63;;;13.60;61.80;;;;;;4983471;28;20038;-61
2022/04/15 04:15:19;;;;;;;6.40;3.88;;;13.50;61.80;;;;;;4989482;28;20548;-59
2022/04/15 04:17:46;;;;;;;6.90;4.00;;;13.50;62.00;;;;;;4989867;28;20061;-61
2022/04/15 04:20:12;;;;;;;7.30;3.83;;;13.50;62.20;;;;;;4968511;28;20027;-59
2022/04/15 04:22:39;;;;;;;8.13;3.85;;;13.50;62.10;;;;;;4982554;28;20019;-60
2022/04/15 04:25:08;;;;;;;6.97;4.22;;;13.40;61.90;;;;;;4984951;28;20039;-61
2022/04/15 04:27:36;;;;;;;6.70;3.95;;;13.40;61.90;;;;;;4986525;28;20482;-61
2022/04/15 04:30:03;;;;;;;6.28;3.65;;;13.30;61.90;;;;;;4988080;28;20066;-60
2022/04/15 04:32:29;;;;;;;8.63;4.85;;;13.30;61.90;;;;;;4984540;28;20025;-60
2022/04/15 04:34:54;;;;;;;5.22;3.75;;;13.30;62.10;;;;;;4986092;28;20488;-60
2022/04/15 04:37:20;;;;;;;10.20;4.35;;;13.20;62.20;;;;;;4989604;28;20027;-60
2022/04/15 04:39:46;;;;;;;5.22;3.40;;;13.20;62.20;;;;;;4985756;28;20089;-60
2022/04/15 04:42:12;;;;;;;4.03;3.20;;;13.20;62.10;;;;;;4983290;28;20031;-59
2022/04/15 04:44:39;;;;;;;6.75;3.80;;;13.20;62.00;;;;;;4985954;28;20038;-59
2022/04/15 04:47:09;;;;;;;5.82;3.70;;;13.10;61.90;;;;;;4982147;28;20018;-59
2022/04/15 04:49:36;;;;;;;5.15;3.55;;;13.10;62.10;;;;;;4978463;28;20095;-60
2022/04/15 04:52:02;;;;;;;5.82;3.42;;;13.10;61.90;;;;;;4981550;28;20105;-61
2022/04/15 04:54:29;;;;;;;5.38;3.80;;;13.10;61.90;;;;;;4983414;28;20023;-59
2022/04/15 04:56:55;;;;;;;4.40;3.33;;;13.00;62.00;;;;;;4980596;28;20038;-61
2022/04/15 04:59:23;;;;;;;5.72;3.67;;;13.00;62.20;;;;;;4983710;28;20051;-61
2022/04/15 05:01:48;;;;;;;11.38;4.15;;;12.90;62.30;;;;;;4985734;28;20022;-59
2022/04/15 05:04:14;;;;;;;5.93;3.83;;;12.90;62.50;;;;;;4988662;28;20049;-59
2022/04/15 05:06:40;;;;;;;7.20;4.07;;;12.90;62.70;;;;;;4990802;28;20031;-60
2022/04/15 05:09:05;;;;;;;7.97;4.07;;;12.90;62.90;;;;;;4986805;28;20046;-59
2022/04/15 05:11:31;;;;;;;5.25;3.65;;;12.90;62.90;;;;;;4981729;28;20060;-61
2022/04/15 05:13:57;;;;;;;5.53;3.90;;;12.90;63.00;;;;;;4987842;28;20038;-59
2022/04/15 05:16:22;;;;;;;4.45;3.70;;;12.90;63.00;;;;;;4984646;28;20571;-60
2022/04/15 05:18:48;;;;;;;5.13;4.00;;;12.90;63.00;;;;;;4984234;28;20069;-61
2022/04/15 05:21:14;;;;;;;11.65;4.05;;;12.90;63.00;;;;;;4984282;28;20018;-60
2022/04/15 05:23:39;;;;;;;4.22;3.80;;;13.00;63.20;;;;;;4985221;28;20047;-61
2022/04/15 05:26:05;;;;;;;7.50;4.13;;;13.00;63.40;;;;;;4976693;28;20042;-60
2022/04/15 05:28:35;;;;;;;6.82;4.32;;;13.00;63.50;;;;;;4980881;28;20053;-60
2022/04/15 05:31:02;;;;;;;6.35;3.92;;;13.10;63.60;;;;;;4987859;28;20036;-59
2022/04/15 05:33:28;;;;;;;6.93;3.97;;;13.10;63.70;;;;;;4984591;28;20019;-60
2022/04/15 05:35:54;;;;;;;5.93;4.25;;;13.20;63.70;;;;;;4985594;28;20058;-61
2022/04/15 05:38:19;;;;;;;7.45;4.13;;;13.20;63.90;;;;;;4985830;28;20082;-59
2022/04/15 05:40:45;;;;;;;8.05;4.55;;;13.30;64.10;;;;;;4984903;28;20319;-60
2022/04/15 05:43:11;;;;;;;8.25;4.40;;;13.40;64.40;;;;;;4981258;28;20691;-60
2022/04/15 05:45:36;;;;;;;10.60;4.60;;;13.50;64.70;;;;;;4988044;28;20061;-60
2022/04/15 05:48:02;;;;;;;8.15;4.28;;;13.60;64.90;;;;;;4965646;28;20026;-59
2022/04/15 05:50:28;;;;;;;6.57;4.30;;;13.70;65.20;;;;;;4983647;28;20046;-60
2022/04/15 05:52:53;;;;;;;7.05;4.30;;;13.90;65.10;;;;;;4983566;28;20046;-60
2022/04/15 05:55:19;;;;;;;6.88;4.45;;;14.10;64.90;;;;;;4986877;28;20037;-59
2022/04/15 05:57:44;;;;;;;8.02;5.20;;;14.20;64.70;;;;;;4985014;28;20133;-59
2022/04/15 06:00:11;;;;;;;7.28;5.30;;;14.40;64.50;;;;;;4983957;28;20126;-59
2022/04/15 06:02:36;;;;;;;6.07;4.47;;;14.50;64.20;;;;;;4981293;28;20034;-59
2022/04/15 06:05:02;;;;;;;6.68;4.63;;;14.70;64.00;;;;;;4978212;28;20036;-61
2022/04/15 06:07:28;;;;;;;6.18;4.40;;;14.80;63.90;;;;;;4983027;28;20485;-61
2022/04/15 06:09:55;;;;;;;7.57;4.75;;;14.90;63.70;;;;;;4980432;28;20027;-59
2022/04/15 06:12:21;;;;;;;8.95;5.28;;;15.10;63.50;;;;;;4977900;28;20035;-59
2022/04/15 06:14:49;;;;;;;7.88;4.70;;;15.20;63.20;;;;;;4982563;28;20030;-59
2022/04/15 06:17:21;;;;;;;8.90;4.63;;;15.40;63.00;;;;;;4987570;28;20010;-60
2022/04/15 06:19:47;;;;;;;8.27;4.57;;;15.50;62.70;;;;;;4985951;28;20030;-60
2022/04/15 06:22:13;;;;;;;10.65;4.53;;;15.60;62.50;;;;;;4979457;28;20101;-61
2022/04/15 06:24:39;;;;;;;7.47;4.32;;;15.70;62.20;;;;;;4987539;28;20504;-59
2022/04/15 06:27:04;;;;;;;5.50;3.92;;;15.90;62.00;;;;;;4983821;28;20360;-59
2022/04/15 06:29:30;;;;;;;7.00;4.70;;;16.00;61.70;;;;;;4983206;28;20508;-61
2022/04/15 06:31:55;;;;;;;7.25;4.45;;;16.10;62.20;;;;;;4978842;28;20081;-60
2022/04/15 06:34:21;;;;;;;6.78;3.92;;;16.10;61.30;;;;;;4982509;28;20030;-60
2022/04/15 06:36:47;;;;;;;7.45;4.43;;;16.20;61.10;;;;;;4986948;28;20042;-59
2022/04/15 06:39:13;;;;;;;6.80;4.57;;;16.40;61.10;;;;;;4986987;28;20108;-61
2022/04/15 06:41:40;;;;;;;7.30;4.20;;;16.40;61.00;;;;;;4973427;28;20034;-60
2022/04/15 06:44:06;;;;;;;9.10;4.18;;;16.60;60.90;;;;;;4979996;28;20047;-59
2022/04/15 06:46:32;;;;;;;4.90;4.00;;;16.60;60.60;;;;;;4991704;28;20034;-60
2022/04/15 06:48:58;;;;;;;8.77;4.10;;;16.80;60.40;;;;;;4983045;28;20061;-60
2022/04/15 06:51:25;;;;;;;6.72;4.20;;;16.90;60.20;;;;;;4987302;28;20030;-59
2022/04/15 06:53:51;;;;;;;5.60;3.88;;;17.00;60.10;;;;;;4980839;28;20030;-60
2022/04/15 06:56:17;;;;;;;8.60;4.25;;;17.10;59.80;;;;;;4981141;28;20073;-60
2022/04/15 06:58:43;;;;;;;4.80;3.58;;;17.30;59.60;;;;;;4986915;28;20058;-60
2022/04/15 07:01:08;;;;;;;8.55;4.05;;;17.30;59.30;;;;;;4982076;28;20040;-59
2022/04/15 07:03:34;;;;;;;6.38;3.78;;;17.50;59.00;;;;;;4978190;28;20062;-60
2022/04/15 07:05:59;;;;;;;4.45;3.58;;;17.60;57.90;;;;;;4983266;28;20030;-60
2022/04/15 07:08:25;;;;;;;5.85;3.92;;;17.60;57.10;;;;;;4966040;28;20350;-60
2022/04/15 07:10:51;;;;;;;6.53;5.20;;;17.80;56.60;;;;;;4981663;28;20046;-61
2022/04/15 07:13:16;;;;;;;10.50;4.18;;;17.80;56.00;;;;;;4964517;28;20027;-59
2022/04/15 07:15:42;;;;;;;9.07;4.80;;;18.00;55.90;;;;;;4985918;28;20523;-59
2022/04/15 07:18:07;;;;;;;6.55;4.72;;;18.10;55.40;;;;;;4981574;28;20094;-60
2022/04/15 07:20:33;;;;;;;11.10;5.30;;;18.20;55.10;;;;;;4975680;28;20081;-60
2022/04/15 07:23:01;;;;;;;7.93;5.25;;;18.30;55.00;;;;;;4981636;28;20066;-60
2022/04/15 07:25:27;;;;;;;11.70;5.53;;;18.40;54.70;;;;;;4982951;28;20054;-61
2022/04/15 07:27:53;;;;;;;8.82;4.93;;;18.50;54.40;;;;;;4980904;28;20038;-60
2022/04/15 07:30:19;;;;;;;11.38;7.22;;;18.70;54.20;;;;;;4980635;28;20038;-60
2022/04/15 07:32:45;;;;;;;14.48;8.73;;;18.80;54.00;;;;;;4974835;28;20478;-61
2022/04/15 07:35:11;;;;;;;8.13;6.18;;;18.80;53.70;;;;;;4980252;28;20030;-60
2022/04/15 07:37:37;;;;;;;6.10;5.20;;;19.00;53.50;;;;;;4984799;28;20100;-59
2022/04/15 07:40:03;;;;;;;5.82;4.50;;;19.10;53.30;;;;;;4978112;28;20031;-60
2022/04/15 07:42:29;;;;;;;9.23;4.80;;;19.20;53.30;;;;;;4984925;28;20058;-59
2022/04/15 07:44:55;;;;;;;6.78;5.30;;;19.30;53.10;;;;;;4982965;28;20045;-60
2022/04/15 07:47:20;;;;;;;6.82;5.00;;;19.50;52.90;;;;;;4980676;28;20033;-61
2022/04/15 07:49:46;;;;;;;7.57;5.50;;;19.60;52.50;;;;;;4981570;28;20034;-61
2022/04/15 07:52:12;;;;;;;10.80;5.97;;;19.70;52.30;;;;;;4982152;28;20508;-60
2022/04/15 07:54:37;;;;;;;8.40;5.88;;;19.90;51.90;;;;;;4983142;28;20027;-60
2022/04/15 07:57:03;;;;;;;9.27;6.35;;;20.00;51.90;;;;;;4978923;28;20031;-61
2022/04/15 07:59:29;;;;;;;10.85;7.13;;;20.10;51.80;;;;;;4977361;28;20074;-59
2022/04/15 08:01:55;;;;;;;8.93;6.70;;;20.20;51.40;;;;;;4989649;28;20034;-60
2022/04/15 08:04:22;;;;;;;10.95;7.07;;;20.30;51.40;;;;;;4986728;28;20521;-60
2022/04/15 08:06:47;;;;;;;11.48;7.15;;;20.50;51.20;;;;;;4985588;28;20547;-60
2022/04/15 08:09:13;;;;;;;11.07;7.63;;;20.60;50.90;;;;;;4964570;28;20043;-60
2022/04/15 08:11:39;;;;;;;11.20;6.30;;;20.70;50.20;;;;;;4987145;28;20019;-60
2022/04/15 08:14:05;;;;;;;8.25;5.00;;;20.90;49.90;;;;;;4984216;28;20033;-61
2022/04/15 08:16:31;;;;;;;6.85;5.30;;;20.90;50.10;;;;;;4982776;28;20434;-61
2022/04/15 08:18:56;;;;;;;8.73;4.85;;;21.00;50.00;;;;;;4981681;28;20027;-61
2022/04/15 08:21:23;;;;;;;7.30;5.00;;;21.20;49.80;;;;;;4981986;28;20528;-60
2022/04/15 08:23:49;;;;;;;8.60;4.68;;;21.20;49.40;;;;;;4978306;28;20145;-60
2022/04/15 08:26:15;;;;;;;7.03;4.63;;;21.30;49.10;;;;;;4882215;28;20022;-60
2022/04/15 08:28:41;;;;;;;5.35;3.72;;;21.30;48.30;;;;;;4982308;28;20031;-61
2022/04/15 08:31:07;;;;;;;6.60;4.10;;;21.30;47.90;;;;;;4989979;28;20113;-60
2022/04/15 08:33:34;;;;;;;6.85;3.88;;;21.20;47.70;;;;;;4986045;28;20027;-61
2022/04/15 08:36:00;;;;;;;8.55;4.60;;;21.20;48.00;;;;;;4986931;28;20055;-61
2022/04/15 08:38:25;;;;;;;5.72;4.20;;;21.20;47.60;;;;;;4968375;28;20034;-61
2022/04/15 08:40:56;;;;;;;5.40;4.00;;;21.20;47.50;;;;;;4985551;28;20318;-60
2022/04/15 08:43:24;;;;;;;5.03;3.78;;;21.20;47.00;;;;;;4984464;28;20394;-62
2022/04/15 08:45:50;;;;;;;6.45;4.35;;;21.30;47.70;;;;;;4991938;28;20026;-61
2022/04/15 08:48:16;;;;;;;7.20;3.40;;;21.30;47.40;;;;;;4986691;28;20030;-61
2022/04/15 08:50:42;;;;;;;5.70;4.07;;;21.40;47.50;;;;;;4989939;28;20078;-60
2022/04/15 08:53:09;;;;;;;7.15;4.32;;;21.50;47.80;;;;;;4990697;28;20090;-62
2022/04/15 08:55:34;;;;;;;6.88;4.45;;;21.70;46.50;;;;;;4984917;28;20015;-61
2022/04/15 08:58:00;;;;;;;6.40;3.88;;;21.80;45.50;;;;;;4984683;28;20026;-62
2022/04/15 09:00:26;;;;;;;5.40;4.10;;;21.80;45.80;;;;;;4986485;28;20051;-61
2022/04/15 09:02:53;;;;;;;5.40;4.05;;;21.90;45.40;;;;;;4980326;28;20058;-61
2022/04/15 09:05:22;;;;;;;9.63;4.07;;;22.00;45.10;;;;;;4965283;28;20031;-61
2022/04/15 09:07:48;;;;;;;5.55;4.03;;;22.00;44.70;;;;;;4981335;28;20038;-60
2022/04/15 09:10:16;;;;;;;4.68;3.90;;;22.00;44.00;;;;;;4984034;28;20026;-61
2022/04/15 09:12:42;;;;;;;4.97;3.22;;;21.90;43.60;;;;;;4983684;28;20430;-61
2022/04/15 09:15:13;;;;;;;6.82;3.00;;;21.80;43.90;;;;;;4975045;28;20079;-61
2022/04/15 09:17:42;;;;;;;7.45;3.75;;;21.60;44.10;;;;;;4987473;28;20040;-61
2022/04/15 09:20:11;;;;;;;5.28;3.70;;;21.50;44.30;;;;;;4986912;28;20385;-61
2022/04/15 09:22:37;;;;;;;4.80;3.55;;;21.50;44.20;;;;;;4985385;28;20144;-60
2022/04/15 09:25:04;;;;;;;7.18;3.55;;;21.50;43.60;;;;;;4988658;28;20057;-61
2022/04/15 09:27:30;;;;;;;4.50;3.22;;;21.60;43.60;;;;;;4985595;28;20022;-61
2022/04/15 09:29:57;;;;;;;5.30;2.55;;;21.40;43.40;;;;;;4988628;28;20704;-61
2022/04/15 09:32:24;;;;;;;4.38;2.65;;;21.30;43.60;;;;;;4980177;28;20030;-61
2022/04/15 09:34:56;;;;;;;5.20;2.92;;;21.20;43.40;;;;;;4973708;28;20034;-61
2022/04/15 09:37:25;;;;;;;4.80;2.65;;;21.10;43.10;;;;;;4979991;28;20030;-61
2022/04/15 09:40:09;;;;;;;3.72;2.60;;;21.10;43.30;;;;;;4982816;28;20057;-61
2022/04/15 09:42:38;;;;;;;5.93;3.22;;;21.00;43.80;;;;;;4975946;28;20023;-61
2022/04/15 09:45:14;;;;;;;4.05;2.60;;;21.00;43.60;;;;;;4975070;28;20042;-61
2022/04/15 09:47:42;;;;;;;3.78;2.33;;;21.10;43.50;;;;;;4988773;28;20647;-61
2022/04/15 09:50:19;;;;;;;3.47;2.58;;;21.10;43.20;;;;;;4986522;28;20103;-61
2022/04/15 09:52:46;;;;;;;7.35;2.75;;;21.20;42.60;;;;;;4982981;28;20077;-61
2022/04/15 09:55:15;;;;;;;4.53;3.22;;;21.20;43.50;;;;;;4988897;28;20108;-62
2022/04/15 09:57:42;;;;;;;3.42;2.65;;;21.20;43.90;;;;;;4984458;28;20019;-61
2022/04/15 10:00:12;;;;;;;3.33;2.33;;;21.30;44.00;;;;;;4985343;28;20426;-61
2022/04/15 10:02:41;;;;;;;5.57;3.45;;;21.40;44.40;;;;;;4988817;28;20073;-60
2022/04/15 10:05:08;;;;;;;5.45;2.80;;;21.40;41.80;;;;;;4982886;28;20046;-61
2022/04/15 10:07:35;;;;;;;4.45;2.70;;;21.40;42.00;;;;;;4983921;28;20591;-60
2022/04/15 10:10:02;;;;;;;5.30;3.20;;;21.30;42.00;;;;;;4985496;28;20027;-61
2022/04/15 10:12:37;;;;;;;3.85;2.50;;;21.30;42.00;;;;;;4965301;28;20030;-61
2022/04/15 10:15:05;;;;;;;6.03;3.20;;;21.20;42.40;;;;;;4981107;28;20045;-61
2022/04/15 10:17:33;;;;;;;4.15;2.50;;;21.20;42.90;;;;;;4991977;28;20026;-62
2022/04/15 10:19:59;;;;;;;4.50;2.30;;;21.30;43.30;;;;;;4986571;28;20845;-61
2022/04/15 10:22:25;;;;;;;3.78;2.60;;;21.50;43.50;;;;;;4990039;28;20030;-62
2022/04/15 10:24:51;;;;;;;4.30;2.60;;;21.70;43.40;;;;;;4978880;28;20093;-61
2022/04/15 10:27:30;;;;;;;3.53;2.50;;;21.80;42.70;;;;;;4980395;28;20039;-61
2022/04/15 10:30:18;;;;;;;5.45;2.80;;;22.00;40.90;;;;;;4983509;28;20033;-60
2022/04/15 10:32:48;;;;;;;3.42;2.30;;;22.20;39.30;;;;;;4987204;28;20097;-61
2022/04/15 10:35:21;;;;;;;5.22;2.38;;;22.10;40.60;;;;;;4979815;28;20042;-62
2022/04/15 10:38:09;;;;;;;3.92;2.55;;;22.00;40.80;;;;;;4986100;28;20018;-61
2022/04/15 10:40:35;;;;;;;4.05;2.92;;;22.00;41.20;;;;;;4981263;28;20501;-61
2022/04/15 10:43:20;;;;;;;3.40;2.15;;;22.10;41.50;;;;;;4980594;28;20448;-61
2022/04/15 10:45:45;;;;;;;5.50;2.35;;;22.20;41.70;;;;;;4977322;28;20034;-60
2022/04/15 10:48:11;;;;;;;3.88;2.60;;;22.20;41.50;;;;;;4964514;28;20029;-61
2022/04/15 10:50:40;;;;;;;5.90;2.45;;;22.10;41.40;;;;;;4982692;28;20039;-60
2022/04/15 10:53:19;;;;;;;4.10;3.17;;;22.10;41.80;;;;;;4976142;28;20035;-61
2022/04/15 10:55:48;;;;;;;6.22;3.05;;;22.10;41.20;;;;;;4982487;28;20083;-60
2022/04/15 10:58:16;;;;;;;3.53;2.75;;;22.20;40.70;;;;;;4967450;28;20022;-60
2022/04/15 11:03:29;;;;;;;5.88;3.22;;;22.30;41.60;;;;;;4981076;28;20049;-60
2022/04/15 11:05:59;;;;;;;4.13;2.90;;;22.50;40.70;;;;;;4989839;28;20035;-60
2022/04/15 11:08:27;;;;;;;4.53;2.78;;;22.50;41.10;;;;;;4979206;28;20509;-61
2022/04/15 11:10:54;;;;;;;6.32;2.05;;;22.60;41.00;;;;;;4979189;28;20031;-61
2022/04/15 11:13:23;;;;;;;4.15;1.90;;;22.70;40.60;;;;;;4978637;28;20026;-61
2022/04/15 11:16:11;;;;;;;2.65;1.90;;;22.80;39.50;;;;;;4980163;28;20038;-62
2022/04/15 11:18:59;;;;;;;4.00;2.45;;;23.00;40.30;;;;;;4984523;28;20027;-61
2022/04/15 11:21:30;;;;;;;3.75;2.35;;;23.20;39.70;;;;;;4980307;28;20089;-61
2022/04/15 11:24:01;;;;;;;4.60;2.33;;;23.40;39.90;;;;;;4982947;28;20046;-61
2022/04/15 11:26:28;;;;;;;3.83;2.22;;;23.50;39.80;;;;;;4962104;28;20097;-61
2022/04/15 11:28:59;;;;;;;3.35;2.20;;;23.50;39.40;;;;;;4981821;28;20133;-61
2022/04/15 11:31:25;;;;;;;2.92;2.20;;;23.60;39.60;;;;;;4978146;28;20176;-61
2022/04/15 11:33:51;;;;;;;2.72;2.25;;;23.70;39.30;;;;;;4973674;28;20039;-61
2022/04/15 11:36:18;;;;;;;3.67;2.33;;;23.80;39.60;;;;;;4986068;28;20057;-61
2022/04/15 11:38:45;;;;;;;4.72;2.20;;;23.90;40.20;;;;;;4987280;28;20022;-63
2022/04/15 11:41:16;;;;;;;3.63;2.20;;;23.90;40.50;;;;;;4984382;28;20019;-61
2022/04/15 11:43:57;;;;;;;4.60;2.53;;;24.10;38.90;;;;;;4984962;28;20074;-61
2022/04/15 11:46:23;;;;;;;4.20;2.42;;;24.10;37.70;;;;;;4986005;28;20027;-61
2022/04/15 11:48:50;;;;;;;4.13;2.58;;;24.10;38.20;;;;;;4980687;28;20339;-62
2022/04/15 11:51:22;;;;;;;4.60;2.63;;;23.90;38.00;;;;;;4986546;28;20030;-61
2022/04/15 11:53:49;;;;;;;6.00;2.80;;;23.80;38.00;;;;;;4986289;28;20042;-61
2022/04/15 11:56:15;;;;;;;3.95;2.97;;;23.60;38.30;;;;;;4981518;28;20042;-60
2022/04/15 11:58:43;;;;;;;4.47;2.97;;;23.40;38.30;;;;;;4987635;28;20065;-61
2022/04/15 12:01:09;;;;;;;5.28;3.63;;;23.20;38.30;;;;;;4982877;28;20027;-60
2022/04/15 12:03:39;;;;;;;4.18;2.72;;;23.00;38.00;;;;;;4987088;28;20030;-61
2022/04/15 12:06:06;;;;;;;3.30;2.55;;;22.80;38.40;;;;;;4983682;28;20037;-62
2022/04/15 12:08:31;;;;;;;4.70;2.20;;;22.70;39.10;;;;;;4984061;28;20019;-61
2022/04/15 12:10:58;;;;;;;7.45;2.72;;;22.60;39.40;;;;;;4982606;28;20022;-61
2022/04/15 12:13:23;;;;;;;3.40;2.25;;;22.60;40.40;;;;;;4986423;28;20125;-60
2022/04/15 12:15:49;;;;;;;4.68;2.55;;;22.70;40.10;;;;;;4986197;28;20525;-61
2022/04/15 12:18:15;;;;;;;4.28;2.50;;;22.90;40.10;;;;;;4968694;28;20099;-61
2022/04/15 12:20:42;;;;;;;4.75;2.50;;;23.10;39.70;;;;;;4984249;28;20101;-61
2022/04/15 12:23:14;;;;;;;4.80;2.17;;;23.20;39.30;;;;;;4988535;28;20029;-61
2022/04/15 12:31:31;;;;;;;11.43;3.55;;;23.20;37.70;;;;;;4982049;28;20041;-60
2022/04/15 12:34:02;;;;;;;3.85;2.40;;;23.00;37.70;;;;;;4989635;28;20086;-61
2022/04/15 12:36:45;;;;;;;3.85;2.50;;;22.80;38.10;;;;;;4985886;28;20500;-62
2022/04/15 12:39:13;;;;;;;3.88;2.25;;;22.70;38.40;;;;;;4984056;28;20034;-60
2022/04/15 12:41:43;;;;;;;4.40;2.50;;;22.70;39.40;;;;;;4988201;28;20034;-60
2022/04/15 12:44:16;;;;;;;2.65;2.10;;;22.80;40.00;;;;;;4987068;28;20434;-60
2022/04/15 12:46:44;;;;;;;4.20;2.20;;;23.00;39.90;;;;;;4976501;28;20037;-61
2022/04/15 12:49:34;;;;;;;3.33;2.20;;;23.20;39.70;;;;;;4980055;28;20105;-60
2022/04/15 12:52:15;;;;;;;4.85;2.50;;;23.50;37.60;;;;;;4989319;28;20082;-61
2022/04/15 12:55:02;;;;;;;5.53;2.28;;;23.60;35.60;;;;;;4983485;28;20126;-60